createdAt,value
2024-02-08T00:02:42.935Z,9.93
2024-02-08T00:05:29.032Z,10.00
2024-02-08T00:08:15.178Z,11.00
2024-02-08T00:11:01.223Z,11.13
2024-02-08T00:13:47.215Z,16.13
2024-02-08T00:16:33.477Z,11.20
2024-02-08T00:19:19.571Z,12.02
2024-02-08T00:22:06.056Z,12.35
2024-02-08T00:24:55.069Z,10.32
2024-02-08T00:27:41.008Z,8.65
2024-02-08T00:30:27.185Z,8.88
2024-02-08T00:33:13.760Z,8.80
2024-02-08T00:35:59.615Z,8.38
2024-02-08T00:38:45.657Z,9.10
2024-02-08T00:41:34.790Z,9.77
2024-02-08T00:44:27.340Z,11.02
2024-02-08T00:47:13.528Z,13.30
2024-02-08T00:50:00.865Z,13.85
2024-02-08T00:52:47.031Z,13.45
2024-02-08T00:55:37.180Z,12.40
2024-02-08T00:58:23.435Z,10.70
2024-02-08T01:01:10.618Z,10.38
2024-02-08T01:03:57.255Z,9.52
2024-02-08T01:06:43.331Z,8.98
2024-02-08T01:09:29.720Z,9.63
2024-02-08T01:12:16.034Z,9.35
2024-02-08T01:15:03.764Z,9.23
2024-02-08T01:17:53.267Z,9.23
2024-02-08T01:20:39.443Z,8.70
2024-02-08T01:23:27.348Z,9.07
2024-02-08T01:26:13.397Z,7.43
2024-02-08T01:28:59.764Z,8.13
2024-02-08T01:31:45.856Z,7.57
2024-02-08T01:34:32.180Z,8.60
2024-02-08T01:37:18.790Z,8.65
2024-02-08T01:40:17.802Z,8.07
2024-02-08T01:43:06.297Z,8.55
2024-02-08T01:45:52.094Z,8.65
2024-02-08T01:48:46.400Z,8.40
2024-02-08T01:51:32.849Z,8.30
2024-02-08T01:54:20.701Z,8.13
2024-02-08T01:57:09.455Z,8.18
2024-02-08T01:59:55.736Z,8.38
2024-02-08T02:02:42.528Z,7.72
2024-02-08T02:05:30.016Z,7.78
2024-02-08T02:08:20.072Z,12.40
2024-02-08T02:11:22.895Z,7.75
2024-02-08T02:14:11.096Z,6.83
2024-02-08T02:17:20.266Z,8.32
2024-02-08T02:20:09.637Z,8.38
2024-02-08T02:22:55.895Z,7.80
2024-02-08T02:25:42.389Z,8.00
2024-02-08T02:28:30.434Z,9.18
2024-02-08T02:31:18.231Z,8.48
2024-02-08T02:34:07.376Z,8.32
2024-02-08T02:36:59.825Z,7.97
2024-02-08T02:39:46.673Z,7.43
2024-02-08T02:42:33.000Z,6.90
2024-02-08T02:45:31.139Z,6.72
2024-02-08T02:48:18.857Z,7.13
2024-02-08T02:51:05.601Z,7.65
2024-02-08T02:53:51.402Z,6.95
2024-02-08T02:56:37.542Z,7.28
2024-02-08T02:59:27.925Z,7.35
2024-02-08T03:02:14.251Z,7.25
2024-02-08T03:05:00.416Z,8.15
2024-02-08T03:07:47.409Z,8.55
2024-02-08T03:10:36.066Z,8.45
2024-02-08T03:13:22.104Z,8.35
2024-02-08T03:16:11.431Z,8.13
2024-02-08T03:18:59.074Z,7.93
2024-02-08T03:21:46.540Z,7.43
2024-02-08T03:24:37.358Z,7.30
2024-02-08T03:27:26.048Z,7.28
2024-02-08T03:30:32.308Z,8.65
2024-02-08T03:33:18.390Z,7.50
2024-02-08T03:36:08.260Z,7.18
2024-02-08T03:38:54.582Z,7.30
2024-02-08T03:41:42.265Z,6.75
2024-02-08T03:44:32.230Z,7.38
2024-02-08T03:47:18.552Z,7.50
2024-02-08T03:50:05.444Z,6.10
2024-02-08T03:52:54.757Z,7.25
2024-02-08T03:55:45.338Z,6.85
2024-02-08T03:58:32.229Z,7.60
2024-02-08T04:01:22.728Z,7.40
2024-02-08T04:04:19.514Z,6.18
2024-02-08T04:07:35.299Z,7.80
2024-02-08T04:10:35.526Z,8.80
2024-02-08T04:13:41.185Z,9.35
2024-02-08T04:16:45.870Z,47.08
2024-02-08T04:19:51.413Z,14.85
2024-02-08T04:22:58.957Z,5.65
2024-02-08T04:26:07.347Z,6.72
2024-02-08T04:29:14.862Z,5.93
2024-02-08T04:32:20.280Z,5.88
2024-02-08T04:35:26.456Z,5.97
2024-02-08T04:38:33.084Z,6.22
2024-02-08T04:41:37.814Z,7.53
2024-02-08T04:44:42.291Z,6.90
2024-02-08T04:47:46.804Z,6.55
2024-02-08T04:50:53.052Z,6.97
2024-02-08T04:53:40.914Z,6.75
2024-02-08T04:56:29.893Z,7.93
2024-02-08T04:59:22.156Z,6.95
2024-02-08T05:02:10.797Z,7.70
2024-02-08T05:04:56.817Z,6.78
2024-02-08T05:07:44.018Z,6.25
2024-02-08T05:10:30.280Z,7.30
2024-02-08T05:13:19.220Z,6.90
2024-02-08T05:16:06.607Z,6.30
2024-02-08T05:18:54.766Z,6.82
2024-02-08T05:21:44.695Z,6.40
2024-02-08T05:24:32.594Z,7.50
2024-02-08T05:27:19.356Z,8.50
2024-02-08T05:30:06.160Z,8.38
2024-02-08T05:32:53.353Z,7.38
2024-02-08T05:35:40.769Z,7.60
2024-02-08T05:38:27.361Z,7.85
2024-02-08T05:41:18.626Z,8.23
2024-02-08T05:44:08.603Z,8.80
2024-02-08T05:46:55.660Z,7.57
2024-02-08T05:49:50.994Z,9.00
2024-02-08T05:52:40.036Z,7.18
2024-02-08T05:55:26.100Z,9.00
2024-02-08T05:58:18.016Z,11.20
2024-02-08T06:01:07.037Z,10.85
2024-02-08T06:03:57.501Z,13.35
2024-02-08T06:06:54.086Z,13.80
2024-02-08T06:09:47.364Z,14.30
2024-02-08T06:12:47.655Z,16.33
2024-02-08T06:15:36.151Z,13.90
2024-02-08T06:18:26.927Z,12.35
2024-02-08T06:21:25.957Z,11.55
2024-02-08T06:24:25.360Z,11.68
2024-02-08T06:27:24.590Z,12.02
2024-02-08T06:30:20.433Z,10.43
2024-02-08T06:33:11.832Z,9.18
2024-02-08T06:35:58.537Z,9.43
2024-02-08T06:38:55.069Z,9.75
2024-02-08T06:42:08.815Z,8.95
2024-02-08T06:45:15.885Z,9.43
2024-02-08T06:48:02.529Z,9.80
2024-02-08T06:51:06.809Z,9.77
2024-02-08T06:54:13.933Z,10.88
2024-02-08T06:57:18.651Z,13.52
2024-02-08T07:00:26.752Z,12.43
2024-02-08T07:03:33.506Z,12.68
2024-02-08T07:06:46.075Z,10.82
2024-02-08T07:09:53.278Z,12.18
2024-02-08T07:12:58.283Z,10.65
2024-02-08T07:16:04.149Z,11.25
2024-02-08T07:19:09.183Z,12.05
2024-02-08T07:22:13.969Z,12.20
2024-02-08T07:25:18.748Z,14.32
2024-02-08T07:28:24.705Z,13.25
2024-02-08T07:31:30.349Z,16.95
2024-02-08T07:34:35.277Z,22.55
2024-02-08T07:37:27.001Z,25.05
2024-02-08T07:40:24.666Z,26.63
2024-02-08T07:43:17.293Z,26.08
2024-02-08T07:46:07.082Z,28.90
2024-02-08T07:49:00.017Z,32.75
2024-02-08T07:51:53.311Z,29.67
2024-02-08T07:54:43.576Z,29.65
2024-02-08T07:57:59.306Z,33.70
2024-02-08T08:00:45.665Z,33.80
2024-02-08T08:03:36.738Z,35.58
2024-02-08T08:06:24.295Z,33.53
2024-02-08T08:09:23.287Z,29.95
2024-02-08T08:12:09.461Z,27.35
2024-02-08T08:15:14.802Z,28.95
2024-02-08T08:18:02.256Z,28.10
2024-02-08T08:20:57.753Z,30.65
2024-02-08T08:24:02.183Z,32.83
2024-02-08T08:26:50.032Z,29.25
2024-02-08T08:29:44.424Z,29.58
2024-02-08T08:32:31.253Z,29.30
2024-02-08T08:35:40.391Z,29.27
2024-02-08T08:38:35.725Z,28.58
2024-02-08T08:41:25.762Z,28.75
2024-02-08T08:44:11.815Z,29.80
2024-02-08T08:47:02.193Z,26.48
2024-02-08T08:49:52.471Z,31.52
2024-02-08T08:52:49.714Z,25.55
2024-02-08T08:55:49.560Z,23.85
2024-02-08T08:58:42.546Z,24.05
2024-02-08T09:01:31.418Z,22.20
2024-02-08T09:04:27.786Z,17.90
2024-02-08T09:07:15.503Z,13.57
2024-02-08T09:10:05.496Z,9.80
2024-02-08T09:13:01.629Z,9.88
2024-02-08T09:15:58.507Z,10.05
2024-02-08T09:19:16.991Z,8.80
2024-02-08T09:22:08.007Z,8.60
2024-02-08T09:24:54.065Z,10.00
2024-02-08T09:27:40.140Z,8.65
2024-02-08T09:30:39.227Z,9.48
2024-02-08T09:33:31.586Z,7.85
2024-02-08T09:36:18.981Z,8.30
2024-02-08T09:39:16.180Z,8.93
2024-02-08T09:42:09.348Z,8.77
2024-02-08T09:45:21.364Z,9.60
2024-02-08T09:48:12.562Z,7.57
2024-02-08T09:51:01.819Z,8.90
2024-02-08T09:53:53.928Z,9.05
2024-02-08T09:56:40.756Z,8.15
2024-02-08T09:59:49.604Z,6.03
2024-02-08T10:02:38.444Z,4.85
2024-02-08T10:05:50.325Z,6.90
2024-02-08T10:08:39.808Z,4.63
2024-02-08T10:11:25.977Z,4.95
2024-02-08T10:14:33.973Z,5.55
2024-02-08T10:17:26.220Z,4.30
2024-02-08T10:20:12.996Z,4.25
2024-02-08T10:23:10.658Z,4.07
2024-02-08T10:26:17.934Z,3.47
2024-02-08T10:29:08.859Z,5.68
2024-02-08T10:31:55.556Z,5.65
2024-02-08T10:34:44.951Z,5.13
2024-02-08T10:37:50.799Z,5.03
2024-02-08T10:40:37.065Z,4.50
2024-02-08T10:43:26.906Z,5.97
2024-02-08T10:46:18.337Z,4.95
2024-02-08T10:49:10.668Z,13.15
2024-02-08T10:52:02.621Z,7.85
2024-02-08T10:54:53.901Z,6.82
2024-02-08T10:57:41.580Z,17.65
2024-02-08T11:00:41.949Z,4.95
2024-02-08T11:03:39.093Z,4.38
2024-02-08T11:06:30.750Z,6.40
2024-02-08T11:09:19.806Z,5.72
2024-02-08T11:12:18.322Z,3.92
2024-02-08T11:15:21.229Z,4.43
2024-02-08T11:18:12.360Z,3.47
2024-02-08T11:21:05.822Z,4.35
2024-02-08T11:26:50.552Z,4.13
2024-02-08T11:29:47.119Z,4.95
2024-02-08T11:32:35.826Z,5.20
2024-02-08T11:35:24.405Z,4.95
2024-02-08T11:38:17.462Z,4.18
2024-02-08T11:41:11.151Z,3.58
2024-02-08T11:44:04.247Z,5.03
2024-02-08T11:46:59.195Z,4.00
2024-02-08T11:50:02.820Z,4.50
2024-02-08T11:55:46.474Z,4.88
2024-02-08T11:58:36.979Z,4.15
2024-02-08T12:01:27.289Z,4.90
2024-02-08T12:04:17.646Z,4.45
2024-02-08T12:07:05.927Z,5.90
2024-02-08T12:10:01.782Z,4.78
2024-02-08T12:12:54.483Z,4.78
2024-02-08T12:18:32.336Z,3.60
2024-02-08T12:21:19.664Z,4.05
2024-02-08T12:24:06.062Z,3.85
2024-02-08T12:26:56.352Z,3.78
2024-02-08T12:29:47.304Z,3.58
2024-02-08T12:32:34.850Z,3.28
2024-02-08T12:35:22.607Z,3.28
2024-02-08T12:38:10.350Z,3.40
2024-02-08T12:40:58.356Z,3.20
2024-02-08T12:43:48.019Z,3.60
2024-02-08T12:46:34.211Z,10.38
2024-02-08T12:49:20.467Z,6.00
2024-02-08T12:52:11.320Z,3.58
2024-02-08T12:54:57.706Z,3.60
2024-02-08T12:57:43.830Z,4.25
2024-02-08T13:00:36.997Z,4.25
2024-02-08T13:03:25.749Z,6.20
2024-02-08T13:06:15.541Z,5.45
2024-02-08T13:09:27.215Z,4.75
2024-02-08T13:12:23.130Z,3.67
2024-02-08T13:15:11.259Z,3.95
2024-02-08T13:17:58.311Z,5.38
2024-02-08T13:20:45.459Z,5.25
2024-02-08T13:23:34.411Z,5.20
2024-02-08T13:26:29.533Z,5.30
2024-02-08T13:29:19.043Z,5.38
2024-02-08T13:32:05.296Z,5.00
2024-02-08T13:34:52.589Z,5.50
2024-02-08T13:37:38.936Z,4.70
2024-02-08T13:40:26.331Z,5.28
2024-02-08T13:43:15.380Z,5.28
2024-02-08T13:46:02.637Z,5.82
2024-02-08T13:48:50.537Z,5.95
2024-02-08T13:51:36.492Z,6.50
2024-02-08T13:54:22.495Z,5.13
2024-02-08T13:57:15.443Z,6.00
2024-02-08T14:00:05.472Z,5.82
2024-02-08T14:02:58.830Z,5.72
2024-02-08T14:05:51.815Z,4.82
2024-02-08T14:08:44.320Z,4.72
2024-02-08T14:11:40.231Z,5.65
2024-02-08T14:14:41.396Z,3.83
2024-02-08T14:17:35.751Z,4.28
2024-02-08T14:20:32.606Z,3.67
2024-02-08T14:23:31.365Z,3.70
2024-02-08T14:26:17.809Z,4.38
2024-02-08T14:29:06.734Z,4.15
2024-02-08T14:31:54.283Z,3.17
2024-02-08T14:34:41.523Z,3.35
2024-02-08T14:37:29.762Z,3.15
2024-02-08T14:40:16.708Z,2.83
2024-02-08T14:43:07.306Z,2.70
2024-02-08T14:45:54.665Z,2.53
2024-02-08T14:48:40.383Z,3.33
2024-02-08T14:51:26.194Z,3.00
2024-02-08T14:54:14.108Z,3.45
2024-02-08T14:57:06.922Z,3.88
2024-02-08T15:00:06.965Z,2.90
2024-02-08T15:02:57.078Z,3.35
2024-02-08T15:05:50.067Z,2.95
2024-02-08T15:08:56.264Z,2.45
2024-02-08T15:11:59.180Z,2.58
2024-02-08T15:14:46.917Z,2.70
2024-02-08T15:17:44.267Z,4.15
2024-02-08T15:20:44.875Z,4.20
2024-02-08T15:23:35.397Z,4.78
2024-02-08T15:26:26.665Z,4.15
2024-02-08T15:29:32.011Z,4.45
2024-02-08T15:32:19.784Z,3.40
2024-02-08T15:35:06.597Z,4.20
2024-02-08T15:38:11.251Z,3.85
2024-02-08T15:41:08.148Z,2.97
2024-02-08T15:43:54.958Z,3.33
2024-02-08T15:46:42.830Z,2.83
2024-02-08T15:49:30.453Z,4.47
2024-02-08T15:52:17.238Z,3.28
2024-02-08T15:55:17.698Z,3.78
2024-02-08T15:58:27.637Z,4.38
2024-02-08T16:01:22.044Z,4.63
2024-02-08T16:07:18.737Z,5.93
2024-02-08T16:10:21.128Z,4.97
2024-02-08T16:13:08.003Z,5.90
2024-02-08T16:15:58.289Z,5.30
2024-02-08T16:18:51.082Z,6.80
2024-02-08T16:21:36.958Z,6.30
2024-02-08T16:24:23.153Z,7.78
2024-02-08T16:27:14.426Z,7.28
2024-02-08T16:30:09.250Z,7.70
2024-02-08T16:33:09.677Z,8.10
2024-02-08T16:36:10.409Z,7.97
2024-02-08T16:39:15.889Z,12.85
2024-02-08T16:42:37.837Z,48.40
2024-02-08T16:45:37.428Z,59.25
2024-02-08T16:48:34.732Z,27.15
2024-02-08T16:51:28.058Z,8.95
2024-02-08T16:54:33.373Z,7.65
2024-02-08T16:57:22.777Z,8.68
2024-02-08T17:00:28.260Z,7.78
2024-02-08T17:03:33.684Z,6.07
2024-02-08T17:06:35.404Z,6.22
2024-02-08T17:09:25.942Z,6.45
2024-02-08T17:12:29.485Z,7.65
2024-02-08T17:15:51.049Z,8.02
2024-02-08T17:18:58.341Z,11.27
2024-02-08T17:21:53.591Z,20.67
2024-02-08T17:24:54.229Z,86.80
2024-02-08T17:27:50.667Z,35.80
2024-02-08T17:31:03.418Z,13.23
2024-02-08T17:33:51.312Z,12.35
2024-02-08T17:36:45.485Z,10.60
2024-02-08T17:39:44.227Z,12.85
2024-02-08T17:42:31.926Z,13.15
2024-02-08T17:45:21.470Z,13.27
2024-02-08T17:48:13.181Z,11.15
2024-02-08T17:51:08.726Z,9.52
2024-02-08T17:53:54.885Z,9.57
2024-02-08T17:56:46.998Z,10.40
2024-02-08T17:59:33.024Z,9.98
2024-02-08T18:02:22.829Z,8.32
2024-02-08T18:05:16.446Z,8.35
2024-02-08T18:08:09.021Z,6.22
2024-02-08T18:10:56.255Z,49.05
2024-02-08T18:13:47.398Z,80.10
2024-02-08T18:16:37.266Z,41.65
2024-02-08T18:19:33.943Z,28.10
2024-02-08T18:22:30.215Z,10.40
2024-02-08T18:25:30.414Z,13.90
2024-02-08T18:28:19.857Z,29.20
2024-02-08T18:31:09.847Z,20.45
2024-02-08T18:33:58.553Z,14.38
2024-02-08T18:36:46.379Z,9.85
2024-02-08T18:39:34.178Z,9.02
2024-02-08T18:42:23.771Z,6.60
2024-02-08T18:45:17.975Z,8.80
2024-02-08T18:48:05.839Z,7.43
2024-02-08T18:50:53.629Z,7.57
2024-02-08T18:53:39.812Z,8.82
2024-02-08T18:56:27.226Z,8.85
2024-02-08T18:59:13.841Z,8.85
2024-02-08T19:02:09.972Z,11.70
2024-02-08T19:04:59.909Z,15.85
2024-02-08T19:07:46.972Z,80.95
2024-02-08T19:10:37.829Z,60.42
2024-02-08T19:13:30.172Z,93.53
2024-02-08T19:16:17.749Z,13.48
2024-02-08T19:19:04.684Z,9.65
2024-02-08T19:21:52.123Z,10.25
2024-02-08T19:24:39.862Z,11.05
2024-02-08T19:27:27.532Z,10.13
2024-02-08T19:30:14.404Z,9.25
2024-02-08T19:33:00.624Z,11.20
2024-02-08T19:35:51.402Z,8.43
2024-02-08T19:38:37.447Z,9.40
2024-02-08T19:41:31.428Z,8.73
2024-02-08T19:44:27.810Z,9.65
2024-02-08T19:47:15.326Z,8.30
2024-02-08T19:50:08.252Z,36.47
2024-02-08T19:52:55.386Z,76.50
2024-02-08T19:55:42.842Z,22.92
2024-02-08T19:58:30.050Z,10.52
2024-02-08T20:01:24.319Z,13.23
2024-02-08T20:04:15.109Z,13.70
2024-02-08T20:07:06.227Z,11.15
2024-02-08T20:09:56.054Z,10.80
2024-02-08T20:12:49.775Z,8.60
2024-02-08T20:18:26.298Z,9.77
2024-02-08T20:21:14.154Z,60.42
2024-02-08T20:24:04.398Z,19.75
2024-02-08T20:26:52.016Z,35.42
2024-02-08T20:29:38.548Z,19.45
2024-02-08T20:32:30.052Z,12.02
2024-02-08T20:35:16.669Z,28.05
2024-02-08T20:38:07.246Z,38.08
2024-02-08T20:40:57.435Z,41.70
2024-02-08T20:43:49.970Z,23.65
2024-02-08T20:46:40.945Z,15.13
2024-02-08T20:49:35.073Z,11.88
2024-02-08T20:52:23.302Z,11.68
2024-02-08T20:55:18.431Z,12.55
2024-02-08T20:58:12.376Z,11.82
2024-02-08T21:03:47.198Z,12.02
2024-02-08T21:06:35.353Z,14.35
2024-02-08T21:09:22.587Z,16.05
2024-02-08T21:12:11.569Z,18.77
2024-02-08T21:15:00.186Z,21.17
2024-02-08T21:17:47.184Z,32.33
2024-02-08T21:20:36.699Z,28.85
2024-02-08T21:23:23.344Z,23.70
2024-02-08T21:26:10.492Z,16.73
2024-02-08T21:28:56.468Z,13.63
2024-02-08T21:31:48.567Z,11.90
2024-02-08T21:34:37.468Z,11.50
2024-02-08T21:37:24.763Z,12.65
2024-02-08T21:40:14.514Z,12.73
2024-02-08T21:43:01.260Z,14.18
2024-02-08T21:45:48.488Z,11.73
2024-02-08T21:48:38.797Z,12.10
2024-02-08T21:51:27.299Z,13.48
2024-02-08T21:54:13.643Z,10.98
2024-02-08T21:57:05.287Z,11.07
2024-02-08T21:59:58.921Z,10.48
2024-02-08T22:02:47.531Z,13.27
2024-02-08T22:05:33.877Z,13.82
2024-02-08T22:08:22.784Z,16.80
2024-02-08T22:11:09.985Z,12.13
2024-02-08T22:13:58.075Z,14.57
2024-02-08T22:16:45.325Z,15.07
2024-02-08T22:19:39.689Z,13.82
2024-02-08T22:22:44.963Z,17.13
2024-02-08T22:25:44.514Z,18.27
2024-02-08T22:28:34.629Z,16.33
2024-02-08T22:31:28.060Z,16.70
2024-02-08T22:34:24.630Z,18.55
2024-02-08T22:37:11.023Z,19.98
2024-02-08T22:39:57.275Z,20.88
2024-02-08T22:42:43.194Z,20.35
2024-02-08T22:45:30.957Z,21.83
2024-02-08T22:48:17.130Z,19.40
2024-02-08T22:51:07.511Z,19.55
2024-02-08T22:53:55.599Z,20.27
2024-02-08T22:56:44.818Z,14.70
2024-02-08T22:59:45.716Z,9.75
2024-02-08T23:02:36.562Z,10.55
2024-02-08T23:05:32.859Z,14.00
2024-02-08T23:08:19.007Z,14.40
2024-02-08T23:11:05.263Z,14.10
2024-02-08T23:13:52.640Z,13.60
2024-02-08T23:16:41.896Z,17.48
2024-02-08T23:19:33.832Z,18.45
2024-02-08T23:22:22.850Z,21.17
2024-02-08T23:25:10.249Z,21.35
2024-02-08T23:27:57.164Z,22.98
2024-02-08T23:30:45.691Z,20.52
2024-02-08T23:33:32.501Z,16.70
2024-02-08T23:36:21.005Z,17.45
2024-02-08T23:39:08.454Z,20.35
2024-02-08T23:41:57.595Z,20.15
2024-02-08T23:44:43.739Z,18.75
2024-02-08T23:47:29.862Z,20.70
2024-02-08T23:50:15.826Z,19.63
2024-02-08T23:53:05.388Z,17.02
2024-02-08T23:55:52.551Z,19.20
2024-02-08T23:58:42.133Z,21.70
